createdAt,value
2022-09-07T06:14:26.383Z,1004.97
2022-09-07T06:24:26.452Z,1004.99
2022-09-07T06:34:26.425Z,1004.31
2022-09-07T06:44:26.412Z,1004.26
2022-09-07T07:04:26.573Z,1004.12
2022-09-07T07:14:28.122Z,1004.23
2022-09-07T07:24:26.457Z,1004.45
2022-09-07T07:34:26.758Z,1004.86
2022-09-07T07:44:26.543Z,1005.13
2022-09-07T07:54:26.463Z,1005.53
2022-09-07T08:04:26.633Z,1005.72
2022-09-07T08:14:26.633Z,1005.85
2022-09-07T08:24:26.522Z,1006.07
2022-09-07T08:34:26.601Z,1006.02
2022-09-07T08:44:26.522Z,1006.03
2022-09-07T08:54:26.650Z,1006.03
2022-09-07T09:04:27.514Z,1006.05
2022-09-07T09:14:26.713Z,1005.98
2022-09-07T09:24:26.629Z,1005.92
2022-09-07T09:34:29.482Z,1006.02
2022-09-07T09:44:26.677Z,1005.96
2022-09-07T09:54:26.518Z,1005.82
2022-09-07T10:04:26.582Z,1005.83
2022-09-07T10:14:26.657Z,1005.75
2022-09-07T10:24:26.638Z,1005.77
2022-09-07T10:34:26.850Z,1005.68
2022-09-07T10:44:26.748Z,1005.68
2022-09-07T10:54:30.710Z,1005.65
2022-09-07T11:04:26.698Z,1005.55
2022-09-07T11:14:26.685Z,1005.55
2022-09-07T11:24:26.590Z,1005.44
2022-09-07T11:34:26.679Z,1005.49
2022-09-07T11:44:26.912Z,1005.42
2022-09-07T11:54:26.815Z,1005.47
2022-09-07T12:04:27.026Z,1005.26
2022-09-07T12:14:27.149Z,1005.04
2022-09-07T12:24:27.021Z,1005.13
2022-09-07T12:34:27.173Z,1004.94
2022-09-07T12:44:29.399Z,1004.87
2022-09-07T12:54:27.298Z,1004.82
2022-09-07T13:04:27.023Z,1004.71
2022-09-07T13:14:27.213Z,1004.73
2022-09-07T13:24:47.517Z,1004.68
2022-09-07T13:34:27.180Z,1004.69
2022-09-07T13:44:27.031Z,1004.64
2022-09-07T13:54:27.095Z,1004.56
2022-09-07T14:04:27.170Z,1004.45
2022-09-07T14:14:27.117Z,1004.53
2022-09-07T14:24:26.995Z,1004.41
2022-09-07T14:34:27.183Z,1004.27
2022-09-07T14:44:27.449Z,1004.24
2022-09-07T14:54:27.249Z,1004.41
2022-09-07T15:04:27.207Z,1004.32
2022-09-07T15:14:27.257Z,1004.26
2022-09-07T15:24:27.145Z,1004.24
2022-09-07T15:34:27.320Z,1004.00
2022-09-07T15:44:28.343Z,1003.98
2022-09-07T15:54:27.348Z,1004.04
2022-09-07T16:04:27.283Z,1004.02
2022-09-07T16:14:27.412Z,1003.91
2022-09-07T16:24:27.453Z,1003.92
2022-09-07T16:34:27.423Z,1003.93
2022-09-07T16:44:27.328Z,1003.98
2022-09-07T16:54:27.652Z,1004.06
2022-09-07T17:04:27.409Z,1004.11
2022-09-07T17:14:27.474Z,1004.16
2022-09-07T17:24:27.646Z,1004.16
2022-09-07T17:34:27.641Z,1004.25
2022-09-07T17:44:30.783Z,1004.52
2022-09-07T17:54:27.510Z,1004.38
2022-09-07T18:04:28.507Z,1004.58
2022-09-07T18:14:27.501Z,1004.64
2022-09-07T18:24:27.562Z,1004.82
2022-09-07T18:34:27.627Z,1005.05
2022-09-07T18:54:27.748Z,1004.62
2022-09-07T19:05:49.674Z,1004.64
2022-09-07T19:14:27.737Z,1004.93
